Time;durP1;ratioP1;P1;durP2;ratioP2;P2;SDS_P1;SDS_P2;PMS_P1;PMS_P2;Temp;Humidity;BMP_temperature;BMP_pressure;BME280_temperature;BME280_humidity;BME280_pressure;Samples;Min_cycle;Max_cycle;Signal;HPM_P1;HPM_P2
2022/01/03 00:01:54;;;;;;;;;;;9.20;99.90;;;;;;5011010;28;19932;-71
2022/01/03 00:04:22;;;;;;;;;;;9.20;99.90;;;;;;5028604;28;20479;-71
2022/01/03 00:06:50;;;;;;;;;;;9.10;99.90;;;;;;5027777;28;20324;-72
2022/01/03 00:09:17;;;;;;;;;;;9.10;99.90;;;;;;5027312;28;19920;-71
2022/01/03 00:11:47;;;;;;;;;;;9.10;99.90;;;;;;5026871;28;19925;-72
2022/01/03 00:14:14;;;;;;;;;;;9.10;99.90;;;;;;5028529;28;19925;-70
2022/01/03 00:16:43;;;;;;;;;;;9.10;99.90;;;;;;5059554;28;19929;-72
2022/01/03 00:19:10;;;;;;;;;;;9.10;99.90;;;;;;5028398;28;19921;-71
2022/01/03 00:21:48;;;;;;;;;;;9.10;99.90;;;;;;5055785;28;20384;-71
2022/01/03 00:24:21;;;;;;;;;;;9.10;99.90;;;;;;5026562;28;19921;-72
2022/01/03 00:26:56;;;;;;;;;;;9.10;99.90;;;;;;5028021;28;19925;-71
2022/01/03 00:29:25;;;;;;;;;;;9.10;99.90;;;;;;5027999;28;20296;-72
2022/01/03 00:31:55;;;;;;;;;;;9.10;99.90;;;;;;5026414;28;19925;-71
2022/01/03 00:34:23;;;;;;;;;;;9.00;99.90;;;;;;5026569;28;19932;-72
2022/01/03 00:36:51;;;;;;;;;;;9.00;99.90;;;;;;5042524;28;19924;-71
2022/01/03 00:39:19;;;;;;;;;;;9.00;99.90;;;;;;5022600;28;19932;-72
2022/01/03 00:41:48;;;;;;;;;;;9.00;99.90;;;;;;5007597;28;19936;-72
2022/01/03 00:44:16;;;;;;;;;;;9.00;99.90;;;;;;5006556;28;19940;-71
2022/01/03 00:46:45;;;;;;;;;;;9.00;99.90;;;;;;5007791;28;19925;-71
2022/01/03 00:49:12;;;;;;;;;;;9.00;99.90;;;;;;5007396;28;19925;-72
2022/01/03 00:51:40;;;;;;;;;;;8.90;99.90;;;;;;5005570;28;20481;-72
2022/01/03 00:54:07;;;;;;;;;;;8.90;99.90;;;;;;5007767;28;20028;-71
2022/01/03 00:56:36;;;;;;;;;;;8.90;99.90;;;;;;5024885;28;19947;-72
2022/01/03 00:59:09;;;;;;;;;;;8.90;99.90;;;;;;5026322;28;20414;-73
2022/01/03 01:01:38;;;;;;;;;;;8.90;99.90;;;;;;5026128;28;19921;-72
2022/01/03 01:04:07;;;;;;;;;;;8.90;99.90;;;;;;5009821;28;19925;-72
2022/01/03 01:06:37;;;;;;;;;;;8.90;99.90;;;;;;5026300;28;19924;-73
2022/01/03 01:09:06;;;;;;;;;;;8.90;99.90;;;;;;5009954;28;19925;-72
2022/01/03 01:11:34;;;;;;;;;;;8.90;99.90;;;;;;5026052;28;19925;-71
2022/01/03 01:14:02;;;;;;;;;;;8.80;99.90;;;;;;5026313;28;19925;-72
2022/01/03 01:16:30;;;;;;;;;;;8.90;99.90;;;;;;5024789;28;20324;-71
2022/01/03 01:18:58;;;;;;;;;;;8.90;99.90;;;;;;5025862;28;19935;-71
2022/01/03 01:21:26;;;;;;;;;;;8.90;99.90;;;;;;5025804;28;19921;-71
2022/01/03 01:23:58;;;;;;;;;;;8.90;99.90;;;;;;5025472;28;19925;-71
2022/01/03 01:29:15;;;;;;;;;;;8.90;99.90;;;;;;5025613;28;19931;-71
2022/01/03 01:31:46;;;;;;;;;;;8.90;99.90;;;;;;5027067;28;20317;-72
2022/01/03 01:34:22;;;;;;;;;;;8.90;99.90;;;;;;5025658;28;19932;-71
2022/01/03 01:36:53;;;;;;;;;;;8.90;99.90;;;;;;5027053;28;19932;-71
2022/01/03 01:39:23;;;;;;;;;;;8.90;99.90;;;;;;5025363;28;19932;-71
2022/01/03 01:41:54;;;;;;;;;;;9.00;99.90;;;;;;5025625;28;20644;-72
2022/01/03 01:44:23;;;;;;;;;;;9.00;99.90;;;;;;5025310;28;19925;-71
2022/01/03 01:46:54;;;;;;;;;;;9.00;99.90;;;;;;5025131;28;19929;-71
2022/01/03 01:49:23;;;;;;;;;;;9.00;99.90;;;;;;5025334;28;19921;-71
2022/01/03 01:51:57;;;;;;;;;;;9.00;99.90;;;;;;5039043;28;19929;-71
2022/01/03 01:54:31;;;;;;;;;;;9.10;99.90;;;;;;5005568;28;19925;-71
2022/01/03 01:57:06;;;;;;;;;;;9.10;99.90;;;;;;5005554;28;19925;-71
2022/01/03 02:00:04;;;;;;;;;;;9.10;99.90;;;;;;5038169;28;19932;-71
2022/01/03 02:02:43;;;;;;;;;;;9.10;99.90;;;;;;5005764;28;19925;-72
2022/01/03 02:05:26;;;;;;;;;;;9.10;99.90;;;;;;5005556;28;19921;-71
2022/01/03 02:07:53;;;;;;;;;;;9.10;99.90;;;;;;5006586;28;19929;-72
2022/01/03 02:10:24;;;;;;;;;;;9.10;99.90;;;;;;4989327;28;19925;-72
2022/01/03 02:12:55;;;;;;;;;;;9.10;99.90;;;;;;5005619;28;19936;-71
2022/01/03 02:15:27;;;;;;;;;;;9.10;99.90;;;;;;5005489;28;19921;-71
2022/01/03 02:17:55;;;;;;;;;;;9.10;99.90;;;;;;5005801;28;20362;-71
2022/01/03 02:20:25;;;;;;;;;;;9.00;99.90;;;;;;5038819;28;20352;-72
2022/01/03 02:22:58;;;;;;;;;;;9.00;99.90;;;;;;5041662;28;19925;-72
2022/01/03 02:25:31;;;;;;;;;;;9.00;99.90;;;;;;5024724;28;20301;-72
2022/01/03 02:27:59;;;;;;;;;;;9.10;99.90;;;;;;5025213;28;20373;-70
2022/01/03 02:30:30;;;;;;;;;;;8.90;99.90;;;;;;5025060;28;19945;-71
2022/01/03 02:32:58;;;;;;;;;;;8.90;99.90;;;;;;5024597;28;19928;-71
2022/01/03 02:35:26;;;;;;;;;;;8.90;99.90;;;;;;5024298;28;19925;-71
2022/01/03 02:37:54;;;;;;;;;;;8.90;99.90;;;;;;5024376;28;20444;-70
2022/01/03 02:40:23;;;;;;;;;;;8.90;99.90;;;;;;5020888;28;19936;-71
2022/01/03 02:42:53;;;;;;;;;;;8.90;99.90;;;;;;5005078;28;19929;-71
2022/01/03 02:45:24;;;;;;;;;;;8.80;99.90;;;;;;5005033;28;19929;-70
2022/01/03 02:47:55;;;;;;;;;;;8.80;99.90;;;;;;5038381;28;19925;-72
2022/01/03 02:50:23;;;;;;;;;;;8.80;99.90;;;;;;5006137;28;19922;-70
2022/01/03 02:52:51;;;;;;;;;;;8.80;99.90;;;;;;5005779;28;19956;-71
2022/01/03 02:55:21;;;;;;;;;;;8.80;99.90;;;;;;5008085;28;19931;-70
2022/01/03 02:57:49;;;;;;;;;;;8.80;99.90;;;;;;5022763;28;20389;-70
2022/01/03 03:00:18;;;;;;;;;;;8.80;99.90;;;;;;5025213;28;19928;-70
2022/01/03 03:02:46;;;;;;;;;;;8.90;99.90;;;;;;5025145;28;19962;-71
2022/01/03 03:05:15;;;;;;;;;;;8.80;99.90;;;;;;5057755;28;19932;-72
2022/01/03 03:07:45;;;;;;;;;;;8.80;99.90;;;;;;5025107;28;19925;-71
2022/01/03 03:10:16;;;;;;;;;;;8.90;99.90;;;;;;5058089;28;19925;-71
2022/01/03 03:12:44;;;;;;;;;;;8.80;99.90;;;;;;5026127;28;20266;-71
2022/01/03 03:15:13;;;;;;;;;;;8.90;99.90;;;;;;5027796;28;19921;-71
2022/01/03 03:17:41;;;;;;;;;;;8.80;99.90;;;;;;5028585;28;19928;-71
2022/01/03 03:20:09;;;;;;;;;;;8.80;99.90;;;;;;5029712;28;20377;-71
2022/01/03 03:22:36;;;;;;;;;;;8.80;99.90;;;;;;5028523;28;20093;-71
2022/01/03 03:25:09;;;;;;;;;;;8.70;99.90;;;;;;5028490;28;19929;-72
2022/01/03 03:27:43;;;;;;;;;;;8.80;99.90;;;;;;5028335;28;20301;-73
2022/01/03 03:30:20;;;;;;;;;;;8.80;99.90;;;;;;4992589;28;19926;-71
2022/01/03 03:32:49;;;;;;;;;;;8.80;99.90;;;;;;5008727;28;19925;-71
2022/01/03 03:35:18;;;;;;;;;;;8.80;99.90;;;;;;5008641;28;19929;-71
2022/01/03 03:37:46;;;;;;;;;;;8.80;99.90;;;;;;5007431;28;19932;-72
2022/01/03 03:40:15;;;;;;;;;;;8.90;99.90;;;;;;5008752;28;20313;-71
2022/01/03 03:42:43;;;;;;;;;;;8.90;99.90;;;;;;5009656;28;19925;-71
2022/01/03 03:45:11;;;;;;;;;;;8.90;99.90;;;;;;5008429;28;19932;-71
2022/01/03 03:47:41;;;;;;;;;;;8.90;99.90;;;;;;5008528;28;19933;-72
2022/01/03 03:50:09;;;;;;;;;;;9.00;99.90;;;;;;5008417;28;19932;-72
2022/01/03 03:52:37;;;;;;;;;;;9.00;99.90;;;;;;5008058;28;19921;-71
2022/01/03 03:55:06;;;;;;;;;;;9.10;99.90;;;;;;5008398;28;19925;-72
2022/01/03 03:57:33;;;;;;;;;;;9.10;99.90;;;;;;5009739;28;19925;-71
2022/01/03 04:00:08;;;;;;;;;;;9.10;99.90;;;;;;5027856;28;20605;-71
2022/01/03 04:02:39;;;;;;;;;;;9.10;99.90;;;;;;5028375;28;19921;-72
2022/01/03 04:05:10;;;;;;;;;;;9.10;99.90;;;;;;5027598;28;19929;-71
2022/01/03 04:07:39;;;;;;;;;;;9.10;99.90;;;;;;5028347;28;19924;-71
2022/01/03 04:10:08;;;;;;;;;;;9.10;99.90;;;;;;5010269;28;20020;-71
2022/01/03 04:12:37;;;;;;;;;;;9.10;99.90;;;;;;5007855;28;19925;-72
2022/01/03 04:15:07;;;;;;;;;;;9.20;99.90;;;;;;5007805;28;19932;-72
2022/01/03 04:17:35;;;;;;;;;;;9.20;99.90;;;;;;5008123;28;19937;-71
2022/01/03 04:20:03;;;;;;;;;;;9.20;99.90;;;;;;5008426;28;20369;-71
2022/01/03 04:22:31;;;;;;;;;;;9.20;99.90;;;;;;5007926;28;19929;-70
2022/01/03 04:24:58;;;;;;;;;;;9.10;99.90;;;;;;5006867;28;19925;-70
2022/01/03 04:27:28;;;;;;;;;;;9.10;99.90;;;;;;5008901;28;20727;-71
2022/01/03 04:29:59;;;;;;;;;;;9.10;99.90;;;;;;5017234;28;20293;-72
2022/01/03 04:32:28;;;;;;;;;;;9.10;99.90;;;;;;5008740;28;19929;-70
2022/01/03 04:34:56;;;;;;;;;;;9.00;99.90;;;;;;5026372;28;20673;-71
2022/01/03 04:37:24;;;;;;;;;;;9.00;99.90;;;;;;5027129;28;19932;-71
2022/01/03 04:39:51;;;;;;;;;;;9.00;99.90;;;;;;5011133;28;19925;-72
2022/01/03 04:42:19;;;;;;;;;;;8.90;99.90;;;;;;5028242;28;20297;-71
2022/01/03 04:44:46;;;;;;;;;;;9.00;99.90;;;;;;5028027;28;19925;-73
2022/01/03 04:47:15;;;;;;;;;;;9.00;99.90;;;;;;5006267;28;19937;-71
2022/01/03 04:49:48;;;;;;;;;;;9.00;99.90;;;;;;5006566;28;20444;-71
2022/01/03 04:52:16;;;;;;;;;;;9.00;99.90;;;;;;5006793;28;19925;-71
2022/01/03 04:54:44;;;;;;;;;;;9.00;99.90;;;;;;5008459;28;19929;-74
2022/01/03 04:57:13;;;;;;;;;;;9.00;99.90;;;;;;5025673;28;19929;-73
2022/01/03 04:59:40;;;;;;;;;;;9.00;99.90;;;;;;5022884;28;19921;-73
2022/01/03 05:02:08;;;;;;;;;;;9.00;99.90;;;;;;5006906;28;19922;-71
2022/01/03 05:04:36;;;;;;;;;;;9.00;99.90;;;;;;5006787;28;19925;-71
2022/01/03 05:07:04;;;;;;;;;;;9.00;99.90;;;;;;5007139;28;19925;-72
2022/01/03 05:09:32;;;;;;;;;;;9.00;99.90;;;;;;5015489;28;19929;-71
2022/01/03 05:12:01;;;;;;;;;;;9.00;99.90;;;;;;5026712;28;19925;-71
2022/01/03 05:14:28;;;;;;;;;;;9.00;99.90;;;;;;5043090;28;19925;-71
2022/01/03 05:16:57;;;;;;;;;;;9.00;99.90;;;;;;5026537;28;19925;-72
2022/01/03 05:19:26;;;;;;;;;;;9.00;99.90;;;;;;5026549;28;19932;-72
2022/01/03 05:21:53;;;;;;;;;;;9.00;99.90;;;;;;5026325;28;19925;-71
2022/01/03 05:24:22;;;;;;;;;;;9.00;99.90;;;;;;5010176;28;19928;-71
2022/01/03 05:26:52;;;;;;;;;;;9.00;99.90;;;;;;5026394;28;19921;-71
2022/01/03 05:29:20;;;;;;;;;;;9.00;99.90;;;;;;5022847;28;19925;-71
2022/01/03 05:31:49;;;;;;;;;;;9.00;99.90;;;;;;5006702;28;20301;-72
2022/01/03 05:34:16;;;;;;;;;;;9.00;99.90;;;;;;5006498;28;19958;-71
2022/01/03 05:36:45;;;;;;;;;;;9.00;99.90;;;;;;5005806;28;19936;-73
2022/01/03 05:39:14;;;;;;;;;;;9.00;99.90;;;;;;5006029;28;20044;-72
2022/01/03 05:41:42;;;;;;;;;;;9.00;99.90;;;;;;5006125;28;19921;-72
2022/01/03 05:44:11;;;;;;;;;;;9.10;99.90;;;;;;5006025;28;19925;-71
2022/01/03 05:46:39;;;;;;;;;;;9.10;99.90;;;;;;5006368;28;19948;-71
2022/01/03 05:49:08;;;;;;;;;;;9.10;99.90;;;;;;5005493;28;19921;-71
2022/01/03 05:51:35;;;;;;;;;;;9.20;99.90;;;;;;5005921;28;20473;-71
2022/01/03 05:54:04;;;;;;;;;;;9.20;99.90;;;;;;5005862;28;19925;-71
2022/01/03 05:56:32;;;;;;;;;;;9.10;99.90;;;;;;5005165;28;19964;-72
2022/01/03 05:58:59;;;;;;;;;;;9.10;99.90;;;;;;5013088;28;20305;-71
2022/01/03 06:01:28;;;;;;;;;;;9.10;99.90;;;;;;5021925;28;19993;-71
2022/01/03 06:04:01;;;;;;;;;;;9.10;99.90;;;;;;5005204;28;19929;-72
2022/01/03 06:06:53;;;;;;;;;;;9.10;99.90;;;;;;5005473;28;19921;-73
2022/01/03 06:09:21;;;;;;;;;;;9.20;99.90;;;;;;5005304;28;20428;-72
2022/01/03 06:11:51;;;;;;;;;;;9.20;99.90;;;;;;5005384;28;19921;-73
2022/01/03 06:14:19;;;;;;;;;;;9.20;99.90;;;;;;5006499;28;19925;-72
2022/01/03 06:16:47;;;;;;;;;;;9.20;99.90;;;;;;5006390;28;20258;-71
2022/01/03 06:19:16;;;;;;;;;;;9.20;99.90;;;;;;5004814;28;19925;-73
2022/01/03 06:21:45;;;;;;;;;;;9.20;99.90;;;;;;5038009;28;19921;-72
2022/01/03 06:24:17;;;;;;;;;;;9.20;99.90;;;;;;5004783;28;19936;-71
2022/01/03 06:26:46;;;;;;;;;;;9.30;99.90;;;;;;5004783;28;19937;-72
2022/01/03 06:29:14;;;;;;;;;;;9.30;99.90;;;;;;5018320;28;20385;-72
2022/01/03 06:31:44;;;;;;;;;;;9.30;99.90;;;;;;5041602;28;19925;-71
2022/01/03 06:34:11;;;;;;;;;;;9.30;99.90;;;;;;5032318;28;20412;-71
2022/01/03 06:36:39;;;;;;;;;;;9.30;99.90;;;;;;4988193;28;20408;-73
2022/01/03 06:39:08;;;;;;;;;;;9.40;99.90;;;;;;5004726;28;19925;-71
2022/01/03 06:41:36;;;;;;;;;;;9.40;99.90;;;;;;5004997;28;19925;-71
2022/01/03 06:44:05;;;;;;;;;;;9.30;99.90;;;;;;5004636;28;20338;-72
2022/01/03 06:46:33;;;;;;;;;;;9.40;99.90;;;;;;5004050;28;19943;-71
2022/01/03 06:49:05;;;;;;;;;;;9.40;99.90;;;;;;5005751;28;19937;-72
2022/01/03 06:51:36;;;;;;;;;;;9.40;99.90;;;;;;5008643;28;20385;-72
2022/01/03 06:54:12;;;;;;;;;;;9.40;99.90;;;;;;4992157;28;19926;-72
2022/01/03 06:56:45;;;;;;;;;;;9.50;99.90;;;;;;5008426;28;19929;-72
2022/01/03 06:59:13;;;;;;;;;;;9.50;99.90;;;;;;5027263;28;19931;-71
2022/01/03 07:01:40;;;;;;;;;;;9.50;99.90;;;;;;5024480;28;19921;-71
2022/01/03 07:04:09;;;;;;;;;;;9.40;99.90;;;;;;4991897;28;19925;-72
2022/01/03 07:06:36;;;;;;;;;;;9.40;99.90;;;;;;5025053;28;19929;-72
2022/01/03 07:09:07;;;;;;;;;;;9.50;99.90;;;;;;4992113;28;19922;-72
2022/01/03 07:11:34;;;;;;;;;;;9.50;99.90;;;;;;5009520;28;19925;-71
2022/01/03 07:19:51;;;;;;;;;;;9.50;99.90;;;;;;5009472;28;19925;-71
2022/01/03 07:22:19;;;;;;;;;;;9.50;99.90;;;;;;5040972;28;19921;-70
2022/01/03 07:24:47;;;;;;;;;;;9.50;99.90;;;;;;5009257;28;19925;-72
2022/01/03 07:27:15;;;;;;;;;;;9.50;99.90;;;;;;5008843;28;19929;-71
2022/01/03 07:29:43;;;;;;;;;;;9.50;99.90;;;;;;5025738;28;19921;-72
2022/01/03 07:32:10;;;;;;;;;;;9.50;99.90;;;;;;5027627;28;19932;-71
2022/01/03 07:34:38;;;;;;;;;;;9.50;99.90;;;;;;5028827;28;20289;-71
2022/01/03 07:37:05;;;;;;;;;;;9.50;99.90;;;;;;5028773;28;20425;-72
2022/01/03 07:39:34;;;;;;;;;;;9.40;99.90;;;;;;5028493;28;19921;-72
2022/01/03 07:42:02;;;;;;;;;;;9.50;99.90;;;;;;5028418;28;19925;-71
2022/01/03 07:44:36;;;;;;;;;;;9.40;99.90;;;;;;5027005;28;19925;-71
2022/01/03 07:47:05;;;;;;;;;;;9.40;99.90;;;;;;5026134;28;20269;-71
2022/01/03 07:49:33;;;;;;;;;;;9.40;99.90;;;;;;5026479;28;19932;-71
2022/01/03 07:52:00;;;;;;;;;;;9.40;99.90;;;;;;5021594;28;19921;-71
2022/01/03 07:54:28;;;;;;;;;;;9.30;99.90;;;;;;5023425;28;19932;-71
2022/01/03 07:56:56;;;;;;;;;;;9.30;99.90;;;;;;5048937;28;19932;-72
2022/01/03 07:59:24;;;;;;;;;;;9.30;99.90;;;;;;5017089;28;20250;-71
2022/01/03 08:01:51;;;;;;;;;;;9.30;99.90;;;;;;5026508;28;19925;-73
2022/01/03 08:04:19;;;;;;;;;;;9.30;99.90;;;;;;5025870;28;19925;-73
2022/01/03 08:06:47;;;;;;;;;;;9.30;99.90;;;;;;5027202;28;19921;-71
2022/01/03 08:09:14;;;;;;;;;;;9.30;99.90;;;;;;5021775;28;19940;-72
2022/01/03 08:11:42;;;;;;;;;;;9.30;99.90;;;;;;5019680;28;19928;-72
2022/01/03 08:14:09;;;;;;;;;;;9.30;99.90;;;;;;5020693;28;20290;-73
2022/01/03 08:16:37;;;;;;;;;;;9.40;99.90;;;;;;5012157;28;19937;-74
2022/01/03 08:19:04;;;;;;;;;;;9.40;99.90;;;;;;5007934;28;19929;-72
2022/01/03 08:21:32;;;;;;;;;;;9.40;99.90;;;;;;5006481;28;20381;-72
2022/01/03 08:23:59;;;;;;;;;;;9.40;99.90;;;;;;5022909;28;20441;-71
2022/01/03 08:26:27;;;;;;;;;;;9.40;99.90;;;;;;5020378;28;19921;-72
2022/01/03 08:28:54;;;;;;;;;;;9.40;99.90;;;;;;5022644;28;20591;-72
2022/01/03 08:31:23;;;;;;;;;;;9.40;99.90;;;;;;5038264;28;19921;-73
2022/01/03 08:33:50;;;;;;;;;;;9.40;99.90;;;;;;5005400;28;19925;-73
2022/01/03 08:36:18;;;;;;;;;;;9.40;99.90;;;;;;5006693;28;19928;-71
2022/01/03 08:38:46;;;;;;;;;;;9.40;99.90;;;;;;5006910;28;20640;-71
2022/01/03 08:41:13;;;;;;;;;;;9.40;99.90;;;;;;5004557;28;20305;-71
2022/01/03 08:43:41;;;;;;;;;;;9.40;99.90;;;;;;5023735;28;19936;-71
2022/01/03 08:46:08;;;;;;;;;;;9.40;99.90;;;;;;5025949;28;19932;-71
2022/01/03 08:48:36;;;;;;;;;;;9.40;99.90;;;;;;5025685;28;19936;-73
2022/01/03 08:51:04;;;;;;;;;;;9.30;99.90;;;;;;5020522;28;19921;-72
2022/01/03 08:53:32;;;;;;;;;;;9.30;99.90;;;;;;5020027;28;20047;-71
2022/01/03 08:56:00;;;;;;;;;;;9.40;99.90;;;;;;5005609;28;19932;-71
2022/01/03 08:58:27;;;;;;;;;;;9.30;99.90;;;;;;5015637;28;19924;-72
2022/01/03 09:00:55;;;;;;;;;;;9.40;99.90;;;;;;5026525;28;20290;-72
2022/01/03 09:03:22;;;;;;;;;;;9.40;99.90;;;;;;5020204;28;20334;-71
2022/01/03 09:05:52;;;;;;;;;;;9.50;99.90;;;;;;5041135;28;20306;-72
2022/01/03 09:08:21;;;;;;;;;;;9.40;99.90;;;;;;5022857;28;19928;-72
2022/01/03 09:10:49;;;;;;;;;;;9.40;99.90;;;;;;5033252;28;20305;-73
2022/01/03 09:13:18;;;;;;;;;;;9.40;99.90;;;;;;5037705;28;19929;-72
2022/01/03 09:15:46;;;;;;;;;;;9.40;99.90;;;;;;5023295;28;19925;-70
2022/01/03 09:18:14;;;;;;;;;;;9.40;99.90;;;;;;5006399;28;19933;-71
2022/01/03 09:20:42;;;;;;;;;;;9.40;99.90;;;;;;5004674;28;19926;-72
2022/01/03 09:23:25;;;;;;;;;;;9.40;99.90;;;;;;5023320;28;19925;-77
2022/01/03 09:28:52;;;;;;;;;;;9.40;99.90;;;;;;5014353;28;20366;-74
2022/01/03 09:31:21;;;;;;;;;;;9.50;99.90;;;;;;5023144;28;19921;-74
2022/01/03 09:33:49;;;;;;;;;;;9.50;99.90;;;;;;5005355;28;19944;-78
2022/01/03 09:36:17;;;;;;;;;;;9.50;99.90;;;;;;5022420;28;19937;-75
2022/01/03 09:38:45;;;;;;;;;;;9.50;99.90;;;;;;5015477;28;19925;-74
2022/01/03 09:41:13;;;;;;;;;;;9.50;99.90;;;;;;5038858;28;19925;-75
2022/01/03 09:43:46;;;;;;;;;;;9.50;99.90;;;;;;5017562;28;19952;-74
2022/01/03 09:46:17;;;;;;;;;;;9.50;99.90;;;;;;5037068;28;19939;-74
2022/01/03 09:48:51;;;;;;;;;;;9.60;99.90;;;;;;5037751;28;19929;-78
2022/01/03 09:51:19;;;;;;;;;;;9.60;99.90;;;;;;5005990;28;19929;-76
2022/01/03 09:53:48;;;;;;;;;;;9.70;99.90;;;;;;5021719;28;19921;-75
2022/01/03 09:56:16;;;;;;;;;;;9.60;99.90;;;;;;5030743;28;19925;-75
2022/01/03 09:58:43;;;;;;;;;;;9.70;99.90;;;;;;5016488;28;19924;-74
2022/01/03 10:01:11;;;;;;;;;;;9.60;99.90;;;;;;5041409;28;20313;-74
2022/01/03 10:03:41;;;;;;;;;;;9.70;99.90;;;;;;5022935;28;19928;-74
2022/01/03 10:06:09;;;;;;;;;;;9.70;99.90;;;;;;5021136;28;19934;-75
2022/01/03 10:08:37;;;;;;;;;;;9.70;99.90;;;;;;5019405;28;19929;-75
2022/01/03 10:11:04;;;;;;;;;;;9.70;99.90;;;;;;5004191;28;19925;-80
2022/01/03 10:13:32;;;;;;;;;;;9.70;99.90;;;;;;5003936;28;19941;-78
2022/01/03 10:15:59;;;;;;;;;;;9.70;99.90;;;;;;5005771;28;20045;-75
2022/01/03 10:18:27;;;;;;;;;;;9.70;99.90;;;;;;5005626;28;19925;-75
2022/01/03 10:20:54;;;;;;;;;;;9.70;99.90;;;;;;5003901;28;19921;-77
2022/01/03 10:23:23;;;;;;;;;;;9.70;99.90;;;;;;5019493;28;20397;-74
2022/01/03 10:25:52;;;;;;;;;;;9.70;99.90;;;;;;5006243;28;19921;-76
2022/01/03 10:28:23;;;;;;;;;;;9.80;99.90;;;;;;5011220;28;19921;-76
2022/01/03 10:30:52;;;;;;;;;;;9.80;99.90;;;;;;5024348;28;19925;-74
2022/01/03 10:33:21;;;;;;;;;;;9.80;99.90;;;;;;5024344;28;19924;-77
2022/01/03 10:35:51;;;;;;;;;;;9.80;99.90;;;;;;5024175;28;20361;-75
2022/01/03 10:38:33;;;;;;;;;;;9.80;99.90;;;;;;5025140;28;19940;-73
2022/01/03 10:41:14;;;;;;;;;;;9.80;99.90;;;;;;5024325;28;19932;-73
2022/01/03 10:43:43;;;;;;;;;;;9.90;99.90;;;;;;5025384;28;19921;-74
2022/01/03 10:46:21;;;;;;;;;;;9.90;99.90;;;;;;5023128;28;19925;-75
2022/01/03 10:48:57;;;;;;;;;;;9.90;99.90;;;;;;5025979;28;19932;-79
2022/01/03 10:51:26;;;;;;;;;;;9.90;99.90;;;;;;5025284;28;19932;-74
2022/01/03 10:53:54;;;;;;;;;;;10.00;99.90;;;;;;5024535;28;19925;-72
2022/01/03 10:56:31;;;;;;;;;;;10.00;99.90;;;;;;5024807;28;19925;-72
2022/01/03 10:59:25;;;;;;;;;;;10.00;99.90;;;;;;5012868;28;19921;-73
2022/01/03 11:01:59;;;;;;;;;;;10.10;99.90;;;;;;5004651;28;19933;-73
2022/01/03 11:04:29;;;;;;;;;;;;;;;;;;4988700;28;19937;-73
2022/01/03 11:13:08;;;;;;;;;;;10.40;99.90;;;;;;5005042;28;20334;-75
2022/01/03 11:15:36;;;;;;;;;;;10.40;99.90;;;;;;5004885;28;20283;-75
2022/01/03 11:18:11;;;;;;;;;;;10.40;99.90;;;;;;5019676;28;20282;-77
2022/01/03 11:20:40;;;;;;;;;;;10.40;99.90;;;;;;5023093;28;19921;-76
2022/01/03 11:23:07;;;;;;;;;;;10.40;99.90;;;;;;4994474;28;20297;-75
2022/01/03 11:25:36;;;;;;;;;;;10.40;99.90;;;;;;5003361;28;19925;-74
2022/01/03 11:28:04;;;;;;;;;;;10.50;99.90;;;;;;5024197;28;19925;-74
2022/01/03 11:30:32;;;;;;;;;;;10.80;99.90;;;;;;5011224;28;20541;-75
2022/01/03 11:33:00;;;;;;;;;;;10.60;99.90;;;;;;5023043;28;19932;-73
2022/01/03 11:35:32;;;;;;;;;;;10.50;99.90;;;;;;5009039;28;19925;-73
2022/01/03 11:38:00;;;;;;;;;;;10.50;99.90;;;;;;5025336;28;20287;-72
2022/01/03 11:40:28;;;;;;;;;;;10.50;99.90;;;;;;5027165;28;19929;-73
2022/01/03 11:42:55;;;;;;;;;;;10.60;99.90;;;;;;5027135;28;19925;-73
2022/01/03 11:45:23;;;;;;;;;;;10.50;99.90;;;;;;5023522;28;19933;-73
2022/01/03 11:47:51;;;;;;;;;;;10.60;99.90;;;;;;5026232;28;19924;-74
2022/01/03 11:50:18;;;;;;;;;;;10.60;99.90;;;;;;5027112;28;19929;-73
2022/01/03 11:52:46;;;;;;;;;;;10.70;99.90;;;;;;5028116;28;20286;-73
2022/01/03 11:55:14;;;;;;;;;;;10.70;99.90;;;;;;5028301;28;19947;-73
2022/01/03 11:58:24;;;;;;;;;;;10.50;99.90;;;;;;5027041;28;19932;-73
2022/01/03 12:03:48;;;;;;;;;;;10.80;99.90;;;;;;5011409;28;19932;-73
2022/01/03 12:06:30;;;;;;;;;;;10.80;99.90;;;;;;5019575;28;19964;-72
2022/01/03 12:08:59;;;;;;;;;;;10.80;99.90;;;;;;5021771;28;19928;-73
2022/01/03 12:11:27;;;;;;;;;;;10.80;99.90;;;;;;5028192;28;20419;-73
2022/01/03 12:13:55;;;;;;;;;;;10.90;99.90;;;;;;5044464;28;20625;-74
2022/01/03 12:16:39;;;;;;;;;;;10.90;99.90;;;;;;5021282;28;19921;-73
2022/01/03 12:19:08;;;;;;;;;;;10.90;99.90;;;;;;5026027;28;19936;-73
2022/01/03 12:21:53;;;;;;;;;;;10.90;99.90;;;;;;5041035;28;19925;-73
2022/01/03 12:24:26;;;;;;;;;;;10.90;99.90;;;;;;5058201;28;20325;-73
2022/01/03 12:27:10;;;;;;;;;;;10.90;99.90;;;;;;5025430;28;19924;-72
2022/01/03 12:29:53;;;;;;;;;;;10.90;99.90;;;;;;5027342;28;19925;-72
2022/01/03 12:32:22;;;;;;;;;;;10.90;99.90;;;;;;5026264;28;19932;-72
2022/01/03 12:35:08;;;;;;;;;;;10.90;99.90;;;;;;5024603;28;20305;-72
2022/01/03 12:37:36;;;;;;;;;;;10.90;99.90;;;;;;5025700;28;19929;-72
2022/01/03 12:40:04;;;;;;;;;;;10.90;99.90;;;;;;5025092;28;19928;-72
2022/01/03 12:42:51;;;;;;;;;;;10.90;99.90;;;;;;5025835;28;19929;-72
2022/01/03 12:45:34;;;;;;;;;;;10.90;99.90;;;;;;5005105;28;19932;-72
2022/01/03 12:48:08;;;;;;;;;;;10.90;99.90;;;;;;5020841;28;20235;-72
2022/01/03 12:50:53;;;;;;;;;;;11.00;99.90;;;;;;5008222;28;19925;-72
2022/01/03 12:53:26;;;;;;;;;;;11.00;99.90;;;;;;5038682;28;19925;-72
2022/01/03 12:55:55;;;;;;;;;;;11.00;99.90;;;;;;5007955;28;19925;-72
2022/01/03 12:58:23;;;;;;;;;;;11.00;99.90;;;;;;5018626;28;19932;-72
2022/01/03 13:00:52;;;;;;;;;;;11.00;99.90;;;;;;5021622;28;19926;-73
2022/01/03 13:03:20;;;;;;;;;;;11.00;99.90;;;;;;5013905;28;19924;-73
2022/01/03 13:06:07;;;;;;;;;;;11.00;99.90;;;;;;5024556;28;20396;-73
2022/01/03 13:08:41;;;;;;;;;;;11.00;99.90;;;;;;5023446;28;19933;-73
2022/01/03 13:11:13;;;;;;;;;;;11.00;99.90;;;;;;5007947;28;19932;-73
2022/01/03 13:13:41;;;;;;;;;;;11.00;99.90;;;;;;5017769;28;19929;-73
2022/01/03 13:16:22;;;;;;;;;;;10.90;99.90;;;;;;5021295;28;19925;-73
2022/01/03 13:18:50;;;;;;;;;;;10.90;99.90;;;;;;5025347;28;19972;-73
2022/01/03 13:21:20;;;;;;;;;;;10.90;99.90;;;;;;5022107;28;20377;-73
2022/01/03 13:23:59;;;;;;;;;;;10.90;99.90;;;;;;5025186;28;19936;-73
2022/01/03 13:26:31;;;;;;;;;;;10.90;99.90;;;;;;5055509;28;20249;-73
2022/01/03 13:29:00;;;;;;;;;;;11.00;99.90;;;;;;5020813;28;19925;-73
2022/01/03 13:31:27;;;;;;;;;;;11.00;99.90;;;;;;5007439;28;20304;-73
2022/01/03 13:33:59;;;;;;;;;;;10.90;99.90;;;;;;5022774;28;19925;-73
2022/01/03 13:36:38;;;;;;;;;;;10.90;99.90;;;;;;5027523;28;20349;-73
2022/01/03 13:39:05;;;;;;;;;;;10.90;99.90;;;;;;5026804;28;20385;-72
2022/01/03 13:41:34;;;;;;;;;;;10.90;99.90;;;;;;5025282;28;19921;-72
2022/01/03 13:44:02;;;;;;;;;;;10.90;99.90;;;;;;5026003;28;20653;-73
2022/01/03 13:49:22;;;;;;;;;;;10.90;99.90;;;;;;5026280;28;19921;-73
2022/01/03 13:51:53;;;;;;;;;;;10.90;99.90;;;;;;5025171;28;20452;-72
2022/01/03 13:54:22;;;;;;;;;;;10.90;99.90;;;;;;5007651;28;19924;-72
2022/01/03 13:56:50;;;;;;;;;;;10.90;99.90;;;;;;5024900;28;19925;-72
2022/01/03 13:59:18;;;;;;;;;;;10.80;99.90;;;;;;5042488;28;19921;-73
2022/01/03 14:01:46;;;;;;;;;;;10.80;99.90;;;;;;5002941;28;20353;-73
2022/01/03 14:04:14;;;;;;;;;;;10.90;99.90;;;;;;5003875;28;19929;-72
2022/01/03 14:06:43;;;;;;;;;;;10.80;99.90;;;;;;5012966;28;19921;-73
2022/01/03 14:09:12;;;;;;;;;;;10.80;99.90;;;;;;5036730;28;19928;-72
2022/01/03 14:12:12;;;;;;;;;;;10.80;99.90;;;;;;5043490;28;19944;-73
2022/01/03 14:14:40;;;;;;;;;;;10.80;99.90;;;;;;5056932;28;20166;-73
2022/01/03 14:17:09;;;;;;;;;;;10.60;99.90;;;;;;5025667;28;20647;-72
2022/01/03 14:19:37;;;;;;;;;;;10.80;99.90;;;;;;5018239;28;19925;-72
2022/01/03 14:22:13;;;;;;;;;;;10.80;99.90;;;;;;5025661;28;19929;-72
2022/01/03 14:24:55;;;;;;;;;;;10.80;99.90;;;;;;5019215;28;19930;-72
2022/01/03 14:27:30;;;;;;;;;;;10.80;99.90;;;;;;5004810;28;20274;-72
2022/01/03 14:30:16;;;;;;;;;;;10.80;99.90;;;;;;5025037;28;19921;-73
2022/01/03 14:32:45;;;;;;;;;;;10.80;99.90;;;;;;5007432;28;19932;-73
2022/01/03 14:35:13;;;;;;;;;;;10.80;99.90;;;;;;5035721;28;19928;-73
2022/01/03 14:37:41;;;;;;;;;;;10.80;99.90;;;;;;5023961;28;19921;-73
2022/01/03 14:40:09;;;;;;;;;;;10.70;99.90;;;;;;5025941;28;19925;-76
2022/01/03 14:42:37;;;;;;;;;;;10.50;99.90;;;;;;5024325;28;19924;-72
2022/01/03 14:45:16;;;;;;;;;;;10.70;99.90;;;;;;5024434;28;19932;-72
2022/01/03 14:47:44;;;;;;;;;;;10.70;99.90;;;;;;4999167;28;19925;-77
2022/01/03 14:50:12;;;;;;;;;;;10.70;99.90;;;;;;5000307;28;19948;-77
2022/01/03 14:52:41;;;;;;;;;;;10.70;99.90;;;;;;5004410;28;19926;-75
2022/01/03 14:55:10;;;;;;;;;;;10.50;99.90;;;;;;5002970;28;19933;-74
2022/01/03 14:57:42;;;;;;;;;;;10.40;99.90;;;;;;5005940;28;19925;-73
2022/01/03 15:00:10;;;;;;;;;;;10.60;99.90;;;;;;5022645;28;19921;-72
2022/01/03 15:02:38;;;;;;;;;;;10.50;99.90;;;;;;5024950;28;19925;-72
2022/01/03 15:05:10;;;;;;;;;;;10.50;99.90;;;;;;5014238;28;19982;-72
2022/01/03 15:07:38;;;;;;;;;;;10.40;99.90;;;;;;5015898;28;19932;-72